sensor_id;sensor_type;location;lat;lon;timestamp;P1;durP1;ratioP1;P2;durP2;ratioP2
74634;SDS011;63140;56.306;43.984;2022-10-16T00:01:58;18.98;;;9.55;;
74634;SDS011;63140;56.306;43.984;2022-10-16T00:04:24;15.88;;;8.50;;
74634;SDS011;63140;56.306;43.984;2022-10-16T00:06:50;15.17;;;8.10;;
74634;SDS011;63140;56.306;43.984;2022-10-16T00:09:16;14.15;;;8.00;;
74634;SDS011;63140;56.306;43.984;2022-10-16T00:11:42;16.60;;;8.73;;
74634;SDS011;63140;56.306;43.984;2022-10-16T00:14:12;14.67;;;8.80;;
74634;SDS011;63140;56.306;43.984;2022-10-16T00:16:39;17.63;;;8.27;;
74634;SDS011;63140;56.306;43.984;2022-10-16T00:19:06;14.55;;;8.30;;
74634;SDS011;63140;56.306;43.984;2022-10-16T00:21:32;15.18;;;8.13;;
74634;SDS011;63140;56.306;43.984;2022-10-16T00:24:17;14.38;;;8.25;;
74634;SDS011;63140;56.306;43.984;2022-10-16T00:26:44;13.93;;;7.33;;
74634;SDS011;63140;56.306;43.984;2022-10-16T00:29:09;13.32;;;7.57;;
74634;SDS011;63140;56.306;43.984;2022-10-16T00:31:36;14.13;;;8.23;;
74634;SDS011;63140;56.306;43.984;2022-10-16T00:34:02;14.63;;;8.20;;
74634;SDS011;63140;56.306;43.984;2022-10-16T00:36:28;14.18;;;8.32;;
74634;SDS011;63140;56.306;43.984;2022-10-16T00:38:54;15.27;;;8.37;;
74634;SDS011;63140;56.306;43.984;2022-10-16T00:41:22;11.93;;;7.53;;
74634;SDS011;63140;56.306;43.984;2022-10-16T00:46:35;13.73;;;8.32;;
74634;SDS011;63140;56.306;43.984;2022-10-16T00:51:39;16.03;;;8.33;;
74634;SDS011;63140;56.306;43.984;2022-10-16T00:54:09;15.23;;;8.70;;
74634;SDS011;63140;56.306;43.984;2022-10-16T00:56:38;16.10;;;8.98;;
74634;SDS011;63140;56.306;43.984;2022-10-16T00:59:06;12.65;;;8.05;;
74634;SDS011;63140;56.306;43.984;2022-10-16T01:01:43;15.48;;;8.40;;
74634;SDS011;63140;56.306;43.984;2022-10-16T01:04:09;16.53;;;8.80;;
74634;SDS011;63140;56.306;43.984;2022-10-16T01:06:43;16.45;;;8.93;;
74634;SDS011;63140;56.306;43.984;2022-10-16T01:17:31;17.88;;;8.52;;
74634;SDS011;63140;56.306;43.984;2022-10-16T01:22:50;13.80;;;8.37;;
74634;SDS011;63140;56.306;43.984;2022-10-16T01:25:48;14.60;;;9.13;;
74634;SDS011;63140;56.306;43.984;2022-10-16T01:28:34;16.98;;;9.20;;
74634;SDS011;63140;56.306;43.984;2022-10-16T01:31:06;18.25;;;9.18;;
74634;SDS011;63140;56.306;43.984;2022-10-16T01:33:40;17.50;;;9.00;;
74634;SDS011;63140;56.306;43.984;2022-10-16T01:36:14;17.57;;;9.70;;
74634;SDS011;63140;56.306;43.984;2022-10-16T01:38:44;16.30;;;9.60;;
74634;SDS011;63140;56.306;43.984;2022-10-16T01:41:22;15.57;;;8.70;;
74634;SDS011;63140;56.306;43.984;2022-10-16T01:46:27;16.70;;;7.80;;
74634;SDS011;63140;56.306;43.984;2022-10-16T01:48:55;14.57;;;7.97;;
74634;SDS011;63140;56.306;43.984;2022-10-16T01:51:23;15.15;;;9.00;;
74634;SDS011;63140;56.306;43.984;2022-10-16T01:53:52;17.42;;;8.35;;
74634;SDS011;63140;56.306;43.984;2022-10-16T01:56:20;15.57;;;8.43;;
74634;SDS011;63140;56.306;43.984;2022-10-16T01:58:49;16.13;;;9.18;;
74634;SDS011;63140;56.306;43.984;2022-10-16T02:01:23;14.23;;;8.07;;
74634;SDS011;63140;56.306;43.984;2022-10-16T02:03:53;19.10;;;8.68;;
74634;SDS011;63140;56.306;43.984;2022-10-16T02:06:22;15.35;;;8.38;;
74634;SDS011;63140;56.306;43.984;2022-10-16T02:08:48;15.75;;;8.43;;
74634;SDS011;63140;56.306;43.984;2022-10-16T02:11:14;15.10;;;9.17;;
74634;SDS011;63140;56.306;43.984;2022-10-16T02:13:44;15.97;;;8.33;;
74634;SDS011;63140;56.306;43.984;2022-10-16T02:16:15;15.40;;;8.73;;
74634;SDS011;63140;56.306;43.984;2022-10-16T02:18:41;14.23;;;9.10;;
74634;SDS011;63140;56.306;43.984;2022-10-16T02:24:19;16.98;;;8.65;;
74634;SDS011;63140;56.306;43.984;2022-10-16T02:29:39;15.68;;;7.90;;
74634;SDS011;63140;56.306;43.984;2022-10-16T02:32:10;14.57;;;8.50;;
74634;SDS011;63140;56.306;43.984;2022-10-16T02:34:40;17.23;;;9.07;;
74634;SDS011;63140;56.306;43.984;2022-10-16T02:37:06;15.38;;;9.50;;
74634;SDS011;63140;56.306;43.984;2022-10-16T02:39:34;17.20;;;9.37;;
74634;SDS011;63140;56.306;43.984;2022-10-16T02:42:00;14.07;;;8.43;;
74634;SDS011;63140;56.306;43.984;2022-10-16T02:44:26;16.63;;;8.68;;
74634;SDS011;63140;56.306;43.984;2022-10-16T02:46:52;14.80;;;8.25;;
74634;SDS011;63140;56.306;43.984;2022-10-16T02:49:18;18.92;;;9.00;;
74634;SDS011;63140;56.306;43.984;2022-10-16T02:51:44;14.77;;;8.50;;
74634;SDS011;63140;56.306;43.984;2022-10-16T02:54:10;13.88;;;8.40;;
74634;SDS011;63140;56.306;43.984;2022-10-16T02:56:36;14.65;;;8.25;;
74634;SDS011;63140;56.306;43.984;2022-10-16T02:59:01;14.87;;;8.97;;
74634;SDS011;63140;56.306;43.984;2022-10-16T03:01:27;16.85;;;8.60;;
74634;SDS011;63140;56.306;43.984;2022-10-16T03:03:53;13.93;;;8.55;;
74634;SDS011;63140;56.306;43.984;2022-10-16T03:06:19;17.27;;;8.73;;
74634;SDS011;63140;56.306;43.984;2022-10-16T03:08:45;17.48;;;9.13;;
74634;SDS011;63140;56.306;43.984;2022-10-16T03:11:11;15.30;;;8.50;;
74634;SDS011;63140;56.306;43.984;2022-10-16T03:13:36;16.87;;;9.80;;
74634;SDS011;63140;56.306;43.984;2022-10-16T03:16:02;18.15;;;9.45;;
74634;SDS011;63140;56.306;43.984;2022-10-16T03:18:28;18.85;;;9.73;;
74634;SDS011;63140;56.306;43.984;2022-10-16T03:20:54;14.43;;;8.13;;
74634;SDS011;63140;56.306;43.984;2022-10-16T03:23:20;15.73;;;8.70;;
74634;SDS011;63140;56.306;43.984;2022-10-16T03:25:46;15.18;;;9.88;;
74634;SDS011;63140;56.306;43.984;2022-10-16T03:28:11;16.70;;;8.40;;
74634;SDS011;63140;56.306;43.984;2022-10-16T03:30:38;16.23;;;9.27;;
74634;SDS011;63140;56.306;43.984;2022-10-16T03:33:05;15.80;;;8.63;;
74634;SDS011;63140;56.306;43.984;2022-10-16T03:35:31;17.75;;;9.82;;
74634;SDS011;63140;56.306;43.984;2022-10-16T03:37:58;16.40;;;9.40;;
74634;SDS011;63140;56.306;43.984;2022-10-16T03:40:24;15.75;;;9.30;;
74634;SDS011;63140;56.306;43.984;2022-10-16T03:42:50;14.82;;;9.00;;
74634;SDS011;63140;56.306;43.984;2022-10-16T03:45:16;17.77;;;9.97;;
74634;SDS011;63140;56.306;43.984;2022-10-16T03:47:42;15.88;;;8.93;;
74634;SDS011;63140;56.306;43.984;2022-10-16T03:50:08;15.70;;;9.15;;
74634;SDS011;63140;56.306;43.984;2022-10-16T03:52:34;17.38;;;9.23;;
74634;SDS011;63140;56.306;43.984;2022-10-16T03:55:00;17.00;;;9.00;;
74634;SDS011;63140;56.306;43.984;2022-10-16T03:57:26;22.65;;;8.95;;
74634;SDS011;63140;56.306;43.984;2022-10-16T03:59:51;19.17;;;9.27;;
74634;SDS011;63140;56.306;43.984;2022-10-16T04:02:17;16.47;;;9.37;;
74634;SDS011;63140;56.306;43.984;2022-10-16T04:04:43;14.32;;;8.75;;
74634;SDS011;63140;56.306;43.984;2022-10-16T04:07:09;18.60;;;9.18;;
74634;SDS011;63140;56.306;43.984;2022-10-16T04:09:34;16.07;;;9.33;;
74634;SDS011;63140;56.306;43.984;2022-10-16T04:12:00;17.70;;;10.15;;
74634;SDS011;63140;56.306;43.984;2022-10-16T04:14:26;17.88;;;9.90;;
74634;SDS011;63140;56.306;43.984;2022-10-16T04:16:52;14.33;;;9.27;;
74634;SDS011;63140;56.306;43.984;2022-10-16T04:19:18;17.27;;;8.55;;
74634;SDS011;63140;56.306;43.984;2022-10-16T04:21:44;18.90;;;9.35;;
74634;SDS011;63140;56.306;43.984;2022-10-16T04:24:10;17.23;;;8.45;;
74634;SDS011;63140;56.306;43.984;2022-10-16T04:26:36;15.43;;;8.70;;
74634;SDS011;63140;56.306;43.984;2022-10-16T04:29:02;15.13;;;9.43;;
74634;SDS011;63140;56.306;43.984;2022-10-16T04:31:28;17.08;;;9.85;;
74634;SDS011;63140;56.306;43.984;2022-10-16T04:33:55;17.33;;;9.05;;
74634;SDS011;63140;56.306;43.984;2022-10-16T04:36:21;19.90;;;9.30;;
74634;SDS011;63140;56.306;43.984;2022-10-16T04:38:46;16.02;;;9.75;;
74634;SDS011;63140;56.306;43.984;2022-10-16T04:41:12;26.43;;;9.43;;
74634;SDS011;63140;56.306;43.984;2022-10-16T04:43:38;17.45;;;9.88;;
74634;SDS011;63140;56.306;43.984;2022-10-16T04:46:04;15.40;;;9.68;;
74634;SDS011;63140;56.306;43.984;2022-10-16T04:48:30;15.60;;;9.53;;
74634;SDS011;63140;56.306;43.984;2022-10-16T04:50:56;16.95;;;10.30;;
74634;SDS011;63140;56.306;43.984;2022-10-16T04:53:22;17.05;;;10.25;;
74634;SDS011;63140;56.306;43.984;2022-10-16T04:55:49;18.92;;;11.30;;
74634;SDS011;63140;56.306;43.984;2022-10-16T04:58:15;14.17;;;9.63;;
74634;SDS011;63140;56.306;43.984;2022-10-16T05:00:40;21.33;;;9.95;;
74634;SDS011;63140;56.306;43.984;2022-10-16T05:03:06;15.40;;;8.57;;
74634;SDS011;63140;56.306;43.984;2022-10-16T05:05:34;14.65;;;8.60;;
74634;SDS011;63140;56.306;43.984;2022-10-16T05:08:01;20.70;;;8.50;;
74634;SDS011;63140;56.306;43.984;2022-10-16T05:10:27;17.67;;;8.65;;
74634;SDS011;63140;56.306;43.984;2022-10-16T05:12:53;13.65;;;7.28;;
74634;SDS011;63140;56.306;43.984;2022-10-16T05:15:22;17.95;;;9.82;;
74634;SDS011;63140;56.306;43.984;2022-10-16T05:17:52;14.05;;;7.88;;
74634;SDS011;63140;56.306;43.984;2022-10-16T05:20:19;18.97;;;8.03;;
74634;SDS011;63140;56.306;43.984;2022-10-16T05:22:44;16.83;;;9.07;;
74634;SDS011;63140;56.306;43.984;2022-10-16T05:25:10;17.90;;;9.60;;
74634;SDS011;63140;56.306;43.984;2022-10-16T05:27:37;21.98;;;10.65;;
74634;SDS011;63140;56.306;43.984;2022-10-16T05:30:03;15.00;;;8.17;;
74634;SDS011;63140;56.306;43.984;2022-10-16T05:32:29;18.57;;;9.83;;
74634;SDS011;63140;56.306;43.984;2022-10-16T05:34:55;19.65;;;9.82;;
74634;SDS011;63140;56.306;43.984;2022-10-16T05:37:21;18.00;;;9.32;;
74634;SDS011;63140;56.306;43.984;2022-10-16T05:39:47;15.77;;;9.77;;
74634;SDS011;63140;56.306;43.984;2022-10-16T05:42:13;23.95;;;9.82;;
74634;SDS011;63140;56.306;43.984;2022-10-16T05:44:38;15.33;;;9.33;;
74634;SDS011;63140;56.306;43.984;2022-10-16T05:47:04;18.23;;;9.30;;
74634;SDS011;63140;56.306;43.984;2022-10-16T05:49:30;19.98;;;8.93;;
74634;SDS011;63140;56.306;43.984;2022-10-16T05:51:56;15.65;;;9.13;;
74634;SDS011;63140;56.306;43.984;2022-10-16T05:54:22;15.50;;;8.13;;
74634;SDS011;63140;56.306;43.984;2022-10-16T05:56:48;15.35;;;9.00;;
74634;SDS011;63140;56.306;43.984;2022-10-16T05:59:13;18.20;;;10.03;;
74634;SDS011;63140;56.306;43.984;2022-10-16T06:01:39;15.57;;;9.82;;
74634;SDS011;63140;56.306;43.984;2022-10-16T06:04:06;18.42;;;8.40;;
74634;SDS011;63140;56.306;43.984;2022-10-16T06:06:32;19.25;;;10.82;;
74634;SDS011;63140;56.306;43.984;2022-10-16T06:08:58;15.03;;;9.23;;
74634;SDS011;63140;56.306;43.984;2022-10-16T06:11:26;19.00;;;9.80;;
74634;SDS011;63140;56.306;43.984;2022-10-16T06:13:55;18.67;;;10.50;;
74634;SDS011;63140;56.306;43.984;2022-10-16T06:16:22;22.73;;;11.25;;
74634;SDS011;63140;56.306;43.984;2022-10-16T06:18:52;17.93;;;10.30;;
74634;SDS011;63140;56.306;43.984;2022-10-16T06:21:20;22.20;;;9.73;;
74634;SDS011;63140;56.306;43.984;2022-10-16T06:23:50;20.27;;;9.68;;
74634;SDS011;63140;56.306;43.984;2022-10-16T06:26:17;17.98;;;10.18;;
74634;SDS011;63140;56.306;43.984;2022-10-16T06:28:46;18.42;;;10.25;;
74634;SDS011;63140;56.306;43.984;2022-10-16T06:31:12;18.08;;;9.98;;
74634;SDS011;63140;56.306;43.984;2022-10-16T06:33:38;17.20;;;10.00;;
74634;SDS011;63140;56.306;43.984;2022-10-16T06:36:09;18.53;;;10.53;;
74634;SDS011;63140;56.306;43.984;2022-10-16T06:38:37;19.38;;;10.20;;
74634;SDS011;63140;56.306;43.984;2022-10-16T06:41:04;19.80;;;9.80;;
74634;SDS011;63140;56.306;43.984;2022-10-16T06:43:31;16.65;;;9.57;;
74634;SDS011;63140;56.306;43.984;2022-10-16T06:46:00;19.38;;;11.38;;
74634;SDS011;63140;56.306;43.984;2022-10-16T06:48:27;18.87;;;9.80;;
74634;SDS011;63140;56.306;43.984;2022-10-16T06:50:58;18.40;;;10.10;;
74634;SDS011;63140;56.306;43.984;2022-10-16T06:53:25;16.92;;;10.30;;
74634;SDS011;63140;56.306;43.984;2022-10-16T06:55:52;22.25;;;10.68;;
74634;SDS011;63140;56.306;43.984;2022-10-16T06:58:18;19.88;;;11.32;;
74634;SDS011;63140;56.306;43.984;2022-10-16T07:00:45;17.13;;;10.13;;
74634;SDS011;63140;56.306;43.984;2022-10-16T07:03:11;16.70;;;10.17;;
74634;SDS011;63140;56.306;43.984;2022-10-16T07:05:40;18.25;;;9.55;;
74634;SDS011;63140;56.306;43.984;2022-10-16T07:08:07;19.33;;;10.07;;
74634;SDS011;63140;56.306;43.984;2022-10-16T07:10:34;20.95;;;9.85;;
74634;SDS011;63140;56.306;43.984;2022-10-16T07:13:00;19.92;;;9.93;;
74634;SDS011;63140;56.306;43.984;2022-10-16T07:15:26;22.20;;;11.30;;
74634;SDS011;63140;56.306;43.984;2022-10-16T07:17:52;17.10;;;8.85;;
74634;SDS011;63140;56.306;43.984;2022-10-16T07:20:19;24.23;;;10.05;;
74634;SDS011;63140;56.306;43.984;2022-10-16T07:22:45;17.75;;;9.50;;
74634;SDS011;63140;56.306;43.984;2022-10-16T07:25:11;20.83;;;9.77;;
74634;SDS011;63140;56.306;43.984;2022-10-16T07:27:37;27.23;;;10.00;;
74634;SDS011;63140;56.306;43.984;2022-10-16T07:30:04;20.63;;;10.27;;
74634;SDS011;63140;56.306;43.984;2022-10-16T07:32:31;19.02;;;9.95;;
74634;SDS011;63140;56.306;43.984;2022-10-16T07:34:57;22.38;;;9.48;;
74634;SDS011;63140;56.306;43.984;2022-10-16T07:37:23;17.37;;;9.10;;
74634;SDS011;63140;56.306;43.984;2022-10-16T07:39:49;22.20;;;9.23;;
74634;SDS011;63140;56.306;43.984;2022-10-16T07:42:15;17.70;;;8.70;;
74634;SDS011;63140;56.306;43.984;2022-10-16T07:44:41;22.93;;;11.47;;
74634;SDS011;63140;56.306;43.984;2022-10-16T07:47:07;22.60;;;9.68;;
74634;SDS011;63140;56.306;43.984;2022-10-16T07:49:33;23.05;;;10.63;;
74634;SDS011;63140;56.306;43.984;2022-10-16T07:51:59;22.92;;;10.85;;
74634;SDS011;63140;56.306;43.984;2022-10-16T07:54:25;17.77;;;9.70;;
74634;SDS011;63140;56.306;43.984;2022-10-16T07:56:50;18.25;;;11.20;;
74634;SDS011;63140;56.306;43.984;2022-10-16T07:59:16;23.57;;;11.33;;
74634;SDS011;63140;56.306;43.984;2022-10-16T08:01:42;24.48;;;9.77;;
74634;SDS011;63140;56.306;43.984;2022-10-16T08:04:08;18.50;;;9.90;;
74634;SDS011;63140;56.306;43.984;2022-10-16T08:06:36;19.95;;;10.43;;
74634;SDS011;63140;56.306;43.984;2022-10-16T08:09:03;20.57;;;9.17;;
74634;SDS011;63140;56.306;43.984;2022-10-16T08:11:29;21.33;;;10.10;;
74634;SDS011;63140;56.306;43.984;2022-10-16T08:13:55;21.15;;;9.82;;
74634;SDS011;63140;56.306;43.984;2022-10-16T08:16:21;18.30;;;9.82;;
74634;SDS011;63140;56.306;43.984;2022-10-16T08:18:47;21.27;;;10.60;;
74634;SDS011;63140;56.306;43.984;2022-10-16T08:21:14;19.80;;;10.43;;
74634;SDS011;63140;56.306;43.984;2022-10-16T08:23:41;21.90;;;12.10;;
74634;SDS011;63140;56.306;43.984;2022-10-16T08:26:07;23.10;;;9.88;;
74634;SDS011;63140;56.306;43.984;2022-10-16T08:28:34;21.30;;;10.73;;
74634;SDS011;63140;56.306;43.984;2022-10-16T08:31:14;19.50;;;11.27;;
74634;SDS011;63140;56.306;43.984;2022-10-16T08:33:42;22.80;;;10.77;;
74634;SDS011;63140;56.306;43.984;2022-10-16T08:36:11;21.00;;;10.35;;
74634;SDS011;63140;56.306;43.984;2022-10-16T08:38:38;21.65;;;11.50;;
74634;SDS011;63140;56.306;43.984;2022-10-16T08:49:11;23.50;;;11.70;;
74634;SDS011;63140;56.306;43.984;2022-10-16T08:51:39;21.80;;;11.93;;
74634;SDS011;63140;56.306;43.984;2022-10-16T08:57:09;21.38;;;12.95;;
74634;SDS011;63140;56.306;43.984;2022-10-16T08:59:38;24.97;;;12.33;;
74634;SDS011;63140;56.306;43.984;2022-10-16T09:02:13;21.50;;;12.63;;
74634;SDS011;63140;56.306;43.984;2022-10-16T09:08:09;20.88;;;11.50;;
74634;SDS011;63140;56.306;43.984;2022-10-16T09:16:34;32.93;;;14.97;;
74634;SDS011;63140;56.306;43.984;2022-10-16T09:21:44;25.17;;;12.48;;
74634;SDS011;63140;56.306;43.984;2022-10-16T09:24:19;28.52;;;13.25;;
74634;SDS011;63140;56.306;43.984;2022-10-16T09:26:55;25.48;;;13.90;;
74634;SDS011;63140;56.306;43.984;2022-10-16T09:29:21;21.63;;;12.77;;
74634;SDS011;63140;56.306;43.984;2022-10-16T09:31:50;27.52;;;13.27;;
74634;SDS011;63140;56.306;43.984;2022-10-16T09:34:30;30.17;;;13.52;;
74634;SDS011;63140;56.306;43.984;2022-10-16T09:37:03;23.25;;;14.30;;
74634;SDS011;63140;56.306;43.984;2022-10-16T09:39:41;23.67;;;13.73;;
74634;SDS011;63140;56.306;43.984;2022-10-16T09:42:17;23.03;;;12.60;;
74634;SDS011;63140;56.306;43.984;2022-10-16T09:44:49;25.55;;;13.18;;
74634;SDS011;63140;56.306;43.984;2022-10-16T09:47:19;25.90;;;13.90;;
74634;SDS011;63140;56.306;43.984;2022-10-16T09:49:54;24.33;;;14.07;;
74634;SDS011;63140;56.306;43.984;2022-10-16T09:52:23;22.63;;;14.45;;
74634;SDS011;63140;56.306;43.984;2022-10-16T09:54:53;20.13;;;12.60;;
74634;SDS011;63140;56.306;43.984;2022-10-16T09:57:21;23.80;;;13.50;;
74634;SDS011;63140;56.306;43.984;2022-10-16T10:02:17;20.75;;;13.27;;
74634;SDS011;63140;56.306;43.984;2022-10-16T10:04:51;29.45;;;15.02;;
74634;SDS011;63140;56.306;43.984;2022-10-16T10:07:26;21.52;;;12.73;;
74634;SDS011;63140;56.306;43.984;2022-10-16T10:09:57;23.65;;;14.50;;
74634;SDS011;63140;56.306;43.984;2022-10-16T10:12:24;27.03;;;12.80;;
74634;SDS011;63140;56.306;43.984;2022-10-16T10:14:53;25.77;;;13.40;;
74634;SDS011;63140;56.306;43.984;2022-10-16T10:17:22;25.15;;;13.20;;
74634;SDS011;63140;56.306;43.984;2022-10-16T10:19:57;21.75;;;14.18;;
74634;SDS011;63140;56.306;43.984;2022-10-16T10:22:44;20.05;;;11.73;;
74634;SDS011;63140;56.306;43.984;2022-10-16T10:30:41;22.00;;;13.07;;
74634;SDS011;63140;56.306;43.984;2022-10-16T10:46:05;19.90;;;12.98;;
74634;SDS011;63140;56.306;43.984;2022-10-16T10:49:02;21.02;;;12.80;;
74634;SDS011;63140;56.306;43.984;2022-10-16T10:51:55;21.60;;;13.68;;
74634;SDS011;63140;56.306;43.984;2022-10-16T10:54:39;21.35;;;12.20;;
74634;SDS011;63140;56.306;43.984;2022-10-16T10:57:33;22.33;;;13.25;;
74634;SDS011;63140;56.306;43.984;2022-10-16T11:05:38;22.95;;;12.52;;
74634;SDS011;63140;56.306;43.984;2022-10-16T11:08:16;21.65;;;14.05;;
74634;SDS011;63140;56.306;43.984;2022-10-16T11:16:13;16.92;;;11.68;;
74634;SDS011;63140;56.306;43.984;2022-10-16T11:18:55;17.02;;;9.48;;
74634;SDS011;63140;56.306;43.984;2022-10-16T11:21:49;14.90;;;7.60;;
74634;SDS011;63140;56.306;43.984;2022-10-16T11:27:33;13.73;;;8.05;;
74634;SDS011;63140;56.306;43.984;2022-10-16T11:30:04;17.52;;;9.13;;
74634;SDS011;63140;56.306;43.984;2022-10-16T11:33:02;13.93;;;8.23;;
74634;SDS011;63140;56.306;43.984;2022-10-16T11:35:49;11.60;;;6.18;;
74634;SDS011;63140;56.306;43.984;2022-10-16T11:38:54;11.95;;;8.30;;
74634;SDS011;63140;56.306;43.984;2022-10-16T11:44:06;14.10;;;8.43;;
74634;SDS011;63140;56.306;43.984;2022-10-16T11:46:43;13.23;;;8.93;;
74634;SDS011;63140;56.306;43.984;2022-10-16T11:49:21;16.48;;;8.93;;
74634;SDS011;63140;56.306;43.984;2022-10-16T11:54:35;11.68;;;8.05;;
74634;SDS011;63140;56.306;43.984;2022-10-16T11:57:05;15.07;;;8.27;;
74634;SDS011;63140;56.306;43.984;2022-10-16T11:59:46;15.45;;;8.55;;
74634;SDS011;63140;56.306;43.984;2022-10-16T12:02:38;15.65;;;9.70;;
74634;SDS011;63140;56.306;43.984;2022-10-16T12:05:18;13.52;;;8.93;;
74634;SDS011;63140;56.306;43.984;2022-10-16T12:08:09;15.20;;;9.03;;
74634;SDS011;63140;56.306;43.984;2022-10-16T12:10:37;15.93;;;9.73;;
74634;SDS011;63140;56.306;43.984;2022-10-16T12:13:05;15.27;;;9.45;;
74634;SDS011;63140;56.306;43.984;2022-10-16T12:15:50;18.83;;;12.18;;
74634;SDS011;63140;56.306;43.984;2022-10-16T12:18:23;20.52;;;10.07;;
74634;SDS011;63140;56.306;43.984;2022-10-16T12:20:59;17.20;;;8.47;;
74634;SDS011;63140;56.306;43.984;2022-10-16T12:23:31;13.47;;;8.93;;
74634;SDS011;63140;56.306;43.984;2022-10-16T12:29:22;12.35;;;7.70;;
74634;SDS011;63140;56.306;43.984;2022-10-16T12:31:49;16.23;;;8.68;;
74634;SDS011;63140;56.306;43.984;2022-10-16T12:34:20;13.07;;;8.98;;
74634;SDS011;63140;56.306;43.984;2022-10-16T12:36:50;14.93;;;8.48;;
74634;SDS011;63140;56.306;43.984;2022-10-16T12:39:23;14.48;;;10.25;;
74634;SDS011;63140;56.306;43.984;2022-10-16T12:42:03;16.73;;;8.33;;
74634;SDS011;63140;56.306;43.984;2022-10-16T12:44:33;15.43;;;8.33;;
74634;SDS011;63140;56.306;43.984;2022-10-16T12:47:00;12.75;;;8.27;;
74634;SDS011;63140;56.306;43.984;2022-10-16T12:49:31;11.57;;;7.72;;
74634;SDS011;63140;56.306;43.984;2022-10-16T12:52:01;12.98;;;8.07;;
74634;SDS011;63140;56.306;43.984;2022-10-16T12:54:31;13.88;;;7.47;;
74634;SDS011;63140;56.306;43.984;2022-10-16T13:11:23;16.17;;;7.68;;
74634;SDS011;63140;56.306;43.984;2022-10-16T13:14:15;19.65;;;8.23;;
74634;SDS011;63140;56.306;43.984;2022-10-16T13:16:52;15.27;;;7.70;;
74634;SDS011;63140;56.306;43.984;2022-10-16T13:22:26;15.60;;;7.73;;
74634;SDS011;63140;56.306;43.984;2022-10-16T13:28:02;14.52;;;7.57;;
74634;SDS011;63140;56.306;43.984;2022-10-16T13:30:53;14.55;;;6.97;;
74634;SDS011;63140;56.306;43.984;2022-10-16T13:33:20;14.77;;;7.45;;
74634;SDS011;63140;56.306;43.984;2022-10-16T13:35:56;14.85;;;7.65;;
74634;SDS011;63140;56.306;43.984;2022-10-16T13:38:24;12.65;;;6.45;;
74634;SDS011;63140;56.306;43.984;2022-10-16T13:40:59;15.33;;;7.23;;
74634;SDS011;63140;56.306;43.984;2022-10-16T13:46:01;16.23;;;6.75;;
74634;SDS011;63140;56.306;43.984;2022-10-16T13:48:30;18.77;;;7.35;;
74634;SDS011;63140;56.306;43.984;2022-10-16T13:51:04;21.13;;;7.10;;
74634;SDS011;63140;56.306;43.984;2022-10-16T13:53:34;20.25;;;7.90;;
74634;SDS011;63140;56.306;43.984;2022-10-16T13:56:04;14.63;;;7.17;;
74634;SDS011;63140;56.306;43.984;2022-10-16T13:58:32;17.50;;;7.90;;
74634;SDS011;63140;56.306;43.984;2022-10-16T14:00:59;17.40;;;7.88;;
74634;SDS011;63140;56.306;43.984;2022-10-16T14:03:27;14.90;;;7.63;;
74634;SDS011;63140;56.306;43.984;2022-10-16T14:06:01;16.10;;;7.32;;
74634;SDS011;63140;56.306;43.984;2022-10-16T14:08:40;18.08;;;8.20;;
74634;SDS011;63140;56.306;43.984;2022-10-16T14:11:09;16.57;;;7.97;;
74634;SDS011;63140;56.306;43.984;2022-10-16T14:13:37;14.57;;;8.10;;
74634;SDS011;63140;56.306;43.984;2022-10-16T14:16:15;14.55;;;7.50;;
74634;SDS011;63140;56.306;43.984;2022-10-16T14:18:44;19.40;;;7.82;;
74634;SDS011;63140;56.306;43.984;2022-10-16T14:21:14;25.17;;;8.02;;
74634;SDS011;63140;56.306;43.984;2022-10-16T14:23:42;17.58;;;8.52;;
74634;SDS011;63140;56.306;43.984;2022-10-16T14:28:35;22.07;;;9.67;;
74634;SDS011;63140;56.306;43.984;2022-10-16T14:31:02;24.35;;;10.23;;
74634;SDS011;63140;56.306;43.984;2022-10-16T14:33:54;21.80;;;10.70;;
74634;SDS011;63140;56.306;43.984;2022-10-16T14:36:21;19.57;;;8.77;;
74634;SDS011;63140;56.306;43.984;2022-10-16T14:38:49;25.53;;;9.07;;
74634;SDS011;63140;56.306;43.984;2022-10-16T14:41:31;20.63;;;9.50;;
74634;SDS011;63140;56.306;43.984;2022-10-16T14:44:04;20.83;;;8.90;;
74634;SDS011;63140;56.306;43.984;2022-10-16T14:46:37;23.98;;;8.35;;
74634;SDS011;63140;56.306;43.984;2022-10-16T14:49:16;19.67;;;8.70;;
74634;SDS011;63140;56.306;43.984;2022-10-16T14:51:45;19.50;;;8.30;;
74634;SDS011;63140;56.306;43.984;2022-10-16T14:54:16;15.73;;;7.97;;
74634;SDS011;63140;56.306;43.984;2022-10-16T14:56:45;16.00;;;8.82;;
74634;SDS011;63140;56.306;43.984;2022-10-16T14:59:22;14.85;;;8.75;;
74634;SDS011;63140;56.306;43.984;2022-10-16T15:02:02;16.80;;;7.68;;
74634;SDS011;63140;56.306;43.984;2022-10-16T15:04:43;14.43;;;8.15;;
74634;SDS011;63140;56.306;43.984;2022-10-16T15:07:09;18.83;;;8.80;;
74634;SDS011;63140;56.306;43.984;2022-10-16T15:09:35;16.35;;;7.97;;
74634;SDS011;63140;56.306;43.984;2022-10-16T15:12:00;15.48;;;7.88;;
74634;SDS011;63140;56.306;43.984;2022-10-16T15:14:27;16.25;;;7.65;;
74634;SDS011;63140;56.306;43.984;2022-10-16T15:16:52;14.33;;;7.43;;
74634;SDS011;63140;56.306;43.984;2022-10-16T15:19:18;13.98;;;7.30;;
74634;SDS011;63140;56.306;43.984;2022-10-16T15:21:44;16.90;;;7.68;;
74634;SDS011;63140;56.306;43.984;2022-10-16T15:24:13;20.50;;;7.57;;
74634;SDS011;63140;56.306;43.984;2022-10-16T15:26:39;16.73;;;7.80;;
74634;SDS011;63140;56.306;43.984;2022-10-16T15:29:05;21.50;;;8.55;;
74634;SDS011;63140;56.306;43.984;2022-10-16T15:31:31;22.90;;;7.97;;
74634;SDS011;63140;56.306;43.984;2022-10-16T15:33:58;11.88;;;7.70;;
74634;SDS011;63140;56.306;43.984;2022-10-16T15:36:30;17.40;;;8.00;;
74634;SDS011;63140;56.306;43.984;2022-10-16T15:39:04;18.08;;;7.00;;
74634;SDS011;63140;56.306;43.984;2022-10-16T15:41:41;16.05;;;7.43;;
74634;SDS011;63140;56.306;43.984;2022-10-16T15:44:08;20.75;;;7.38;;
74634;SDS011;63140;56.306;43.984;2022-10-16T15:46:34;11.88;;;6.63;;
74634;SDS011;63140;56.306;43.984;2022-10-16T15:49:00;16.03;;;6.87;;
74634;SDS011;63140;56.306;43.984;2022-10-16T15:51:26;16.80;;;6.88;;
74634;SDS011;63140;56.306;43.984;2022-10-16T15:53:57;12.60;;;7.35;;
74634;SDS011;63140;56.306;43.984;2022-10-16T15:56:24;14.00;;;6.75;;
74634;SDS011;63140;56.306;43.984;2022-10-16T15:58:53;16.73;;;7.10;;
74634;SDS011;63140;56.306;43.984;2022-10-16T16:01:20;13.97;;;6.50;;
74634;SDS011;63140;56.306;43.984;2022-10-16T16:03:46;12.32;;;6.68;;
74634;SDS011;63140;56.306;43.984;2022-10-16T16:06:13;14.50;;;6.88;;
74634;SDS011;63140;56.306;43.984;2022-10-16T16:08:40;14.45;;;6.18;;
74634;SDS011;63140;56.306;43.984;2022-10-16T16:11:09;13.73;;;6.60;;
74634;SDS011;63140;56.306;43.984;2022-10-16T16:13:36;12.57;;;6.43;;
74634;SDS011;63140;56.306;43.984;2022-10-16T16:16:07;11.07;;;6.60;;
74634;SDS011;63140;56.306;43.984;2022-10-16T16:18:37;14.27;;;5.97;;
74634;SDS011;63140;56.306;43.984;2022-10-16T16:21:04;11.57;;;6.18;;
74634;SDS011;63140;56.306;43.984;2022-10-16T16:23:31;15.27;;;6.07;;
74634;SDS011;63140;56.306;43.984;2022-10-16T16:28:37;16.65;;;7.28;;
74634;SDS011;63140;56.306;43.984;2022-10-16T16:31:04;10.90;;;7.00;;
74634;SDS011;63140;56.306;43.984;2022-10-16T16:33:30;11.90;;;7.40;;